This is the latest recevied weather packets stored in our database for station/object WX8ASH-13. If no packets are shown the sender has not sent any weather packets the latest 1 day(s).
| Time | Temp. | Humidity | Pressure | Rain* | Wind** | Luminosity | Snow |
|---|---|---|---|---|---|---|---|
| 1836274630 | 19.44° C | 72% | 1021.2 hPa | 0 mm | 1.34 m/s, 108° | - | - |
| 1836274480 | 19.44° C | 73% | 1021.3 hPa | 0 mm | 0 m/s | - | - |
| 1836274329 | 19.44° C | 72% | 1021.2 hPa | 0 mm | 0 m/s | - | - |
| 1836274183 | 19.44° C | 73% | 1021.2 hPa | 0 mm | 0 m/s | - | - |
| 1836274028 | 19.44° C | 72% | 1021.2 hPa | 0 mm | 0.45 m/s, 80° | - | - |
| 1778054416 | 6.67° C | 99% | 1015.1 hPa | 2.29 mm | 0.89 m/s, 18° | - | - |
| 1778054107 | 7.22° C | 99% | 1015.3 hPa | 2.54 mm | 0 m/s | - | - |
| 1778053809 | 7.22° C | 99% | 1015.3 hPa | 2.79 mm | 1.79 m/s, 20° | - | - |
| 1778053507 | 7.22° C | 99% | 1015.3 hPa | 2.79 mm | 0 m/s | - | - |
| 1778053207 | 6.67° C | 99% | 1015.3 hPa | 3.05 mm | 0 m/s | - | - |
| 1778052911 | 6.67° C | 99% | 1015.3 hPa | 2.79 mm | 1.34 m/s, 8° | - | - |
| 1778052606 | 7.22° C | 99% | 1015.1 hPa | 3.05 mm | 0.45 m/s, 18° | - | - |
| 1778052307 | 6.67° C | 99% | 1015 hPa | 3.05 mm | 1.34 m/s, 27° | - | - |
| 1778052008 | 7.22° C | 99% | 1015 hPa | 3.05 mm | 1.79 m/s, 13° | - | - |
| 1778051715 | 7.22° C | 99% | 1015 hPa | 2.79 mm | 1.79 m/s, 31° | - | - |
| 1778051407 | 7.22° C | 99% | 1015 hPa | 2.79 mm | 0 m/s | - | - |
| 1778051107 | 6.67° C | 99% | 1015 hPa | 2.54 mm | 0.45 m/s, 4° | - | - |
| 1778050805 | 7.22° C | 99% | 1014.8 hPa | 2.54 mm | 2.24 m/s, 359° | - | - |
| 1778050508 | 6.67° C | 99% | 1014.7 hPa | 2.29 mm | 0.89 m/s, 25° | - | - |
| 1778050205 | 7.22° C | 99% | 1014.7 hPa | 2.03 mm | 1.34 m/s, 24° | - | - |
| 1778049907 | 7.22° C | 99% | 1014.8 hPa | 2.03 mm | 1.34 m/s, 6° | - | - |
| 1778049605 | 7.22° C | 99% | 1014.8 hPa | 1.78 mm | 0.89 m/s, 28° | - | - |
| 1778049304 | 7.22° C | 99% | 1015 hPa | 2.03 mm | 1.79 m/s, 354° | - | - |
| 1778049005 | 7.22° C | 99% | 1014.8 hPa | 1.78 mm | 1.34 m/s, 20° | - | - |
| 1778048704 | 7.22° C | 99% | 1014.8 hPa | 2.54 mm | 1.34 m/s, 7° | - | - |
* Rain latest hour (hover to see other rain measurements)
** Current wind speed in m/s (hover to see current wind gust speed)